Flight Track Log - Related Links

Times and Time Zones

All times are in EDT time to prevent confusion due to time zone crossing. See the N100MW flight status page for this flight to view local times or setup timezone preferences in your user account.


Time Position Orientation Groundspeed Altitude Reporting Facility
EDT Latitude Longitude Course Direction KTS MPH feet Rate Location/Type
Thu 11:52:12 AM 36.8092 -119.8267 276° West 147 169 2,900  Level Oakland Center
Thu 11:53:14 AM 36.8139 -119.8786 276° West 138 159 4,200 1,220 Climbing Oakland Center
Thu 11:54:15 AM 36.8194 -119.9297 278° West 138 159 5,400 1,122 Climbing Oakland Center
Thu 11:55:17 AM 36.8194 -119.9781 270° West 140 161 6,500 1,065 Climbing Oakland Center
Thu 11:56:19 AM 36.8181 -120.0264 268° West 140 161 7,600 878 Climbing Oakland Center
Thu 11:57:20 AM 36.8169 -120.0772 268° West 144 166 8,300 780 Climbing Oakland Center
Thu 11:58:22 AM 36.8236 -120.1308 279° West 157 181 9,200 829 Climbing Oakland Center
Thu 11:59:23 AM 36.8275 -120.1894 275° West 162 186 10,000 683 Climbing Oakland Center
Thu 12:00:25 PM 36.8294 -120.2411 273° West 164 189 10,600 780 Climbing Oakland Center
Thu 12:01:26 PM 36.8347 -120.3058 276° West 155 178 11,600 934 Climbing Oakland Center
Thu 12:02:27 PM 36.8400 -120.3594 277° West 156 180 12,500 488 Climbing Oakland Center
Thu 12:03:29 PM 36.8453 -120.4172 277° West 172 198 12,600 98 Climbing Oakland Center
Thu 12:04:30 PM 36.8525 -120.4831 278° West 192 221 12,700  Climbing Oakland Center
Thu 12:05:32 PM 36.8592 -120.5531 277° West 204 235 12,600 -98 Descending Oakland Center
Thu 12:06:33 PM 36.8539 -120.6217 265° West 201 231 12,500 -341 Descending Oakland Center
Thu 12:07:35 PM 36.8447 -120.6908 261° West 203 234 11,900 -537 Descending Oakland Center
Thu 12:08:36 PM 36.8375 -120.7603 263° West 204 235 11,400 -439 Descending Oakland Center
Thu 12:09:38 PM 36.8300 -120.8286 262° West 201 231 11,000 -537 Descending Oakland Center
Thu 12:10:39 PM 36.8197 -120.9053 261° West 190 219 10,300 -585 Descending Oakland Center
Thu 12:11:41 PM 36.8108 -120.9744 261° West 197 227 9,800 -537 Descending Oakland Center
Thu 12:12:42 PM 36.8017 -121.0428 261° West 199 229 9,200 -541 Descending Oakland Center
Thu 12:13:43 PM 36.7939 -121.1122 262° West 203 234 8,700 -537 Descending Oakland Center
Thu 12:14:45 PM 36.7886 -121.1806 265° West 201 231 8,100 -585 Descending Oakland Center
Thu 12:15:46 PM 36.7833 -121.2500 265° West 203 234 7,500 -585 Descending Oakland Center
Thu 12:16:48 PM 36.7769 -121.3186 263° West 200 230 6,900 -634 Descending Oakland Center
Thu 12:17:49 PM 36.7689 -121.3869 262° West 202 232 6,200 -689 Descending Oakland Center
Thu 12:18:50 PM 36.7558 -121.4689 259° West 202 232 5,500 -634 Descending Oakland Center
Thu 12:19:52 PM 36.7442 -121.5375 258° West 203 234 4,900 -537 Descending Oakland Center
Thu 12:20:53 PM 36.7350 -121.6056 260° West 201 231 4,400 -574 Descending Oakland Center
Thu 12:21:26 PM 36.7333 -121.6500 267° West 196 226 4,000 -581 Descending Northern Cal TRACON
Thu 12:22:26 PM 36.7333 -121.7167 270° West 198 228 3,500 -450 Descending Northern Cal TRACON
Thu 12:23:26 PM 36.7333 -121.7833 270° West 198 228 3,100 -250 Descending Northern Cal TRACON
Thu 12:24:26 PM 36.7333 -121.8500 270° West 184 212 3,000  Descending Northern Cal TRACON
Thu 12:25:20 PM 36.7333 -121.9000 270° West 170 196 3,100  Climbing Northern Cal TRACON
Thu 12:26:20 PM 36.7667 -121.9333 321° Northwest 153 176 3,000 -100 Descending Northern Cal TRACON
Thu 12:27:20 PM 36.8000 -121.9167 22° Northeast 164 189 2,900 -158 Descending Northern Cal TRACON
Thu 12:28:14 PM 36.8333 -121.8667 50° Northeast 161 185 2,700 -526 Descending Northern Cal TRACON
Thu 12:29:14 PM 36.8667 -121.8500 22° Northeast 150 173 1,900 -780 Descending Northern Cal TRACON
Thu 12:29:54 PM 36.8833 -121.8311 42° Northeast 157 181 1,400 -832 Descending Oakland Center
Thu 12:30:55 PM 36.9172 -121.8056 31° Northeast 150 173 500 -885 Descending Oakland Center

Login

Don't have an account? Register now (free) for customized features, flight alerts, and more!